Forside
METAR-TAF:

METAR-TAF

Lufthavne :

Mauritius, Mauritius

Breddekreds: 20-26S, længdekreds: 057-40E, højde: 55 m

Aktuelle vejr

Denne rapport blev lavet for 10 minutter siden, kl. 13:00 UTC
Vind 7 kt fra sydsydøst
Temperatur 24°C
Fugtighed 65%
Tryk 1018 hPa
Sigt 10 km eller mere
Spredte skyer i en højde af 1900 ft

METAR: FIMP 221300Z 16007KT 9999 SCT019 24/17 Q1018

Tid: 17:10 (13:10 UTC)

Vejrudsigter

Denne rapport blev lavet for 1 time og 40 minutter siden, kl. 11:30 UTC
Foreløbig gælder fra 22 på 12 UTC til 23 på 18 UTC
Vind 10 kt fra sydøst
Sigt 10 km eller mere
Spredte skyer i en højde af 1800 ft

TAF: FIMP 221130Z 2212/2318 14010KT 9999 SCT018

Vejrobservationer og prognoser fra mere end 4000 lufthavne (METAR og TAF).

De gule og røde prikker repræsenterer de meteorologiske stationer.

Flyt musen over at se navnet på stationen.

Så klik over at se vejr observationer og prognoser.

At skifte det kort: Klik på de grønne knapper med et sort kors for at zoome ind; på den grønne knap med en bindestreg for at zoome ud; eller på de grønne pile for tilstødende kort.


METAR-TAF: